Flugplatz Baltrum

Für EDWZ sind keine METAR/TAF Berichte vorhanden.
Es werden die Flugwettermeldungen vom Flugplatz Wittmundhafen Airport in 27 km Entfernung angezeigt.

Bericht für ETNT

vom 15.07. um 16:20 UTC

Wind 3 kt aus 200°

Sichtweite 10 km oder mehr

gering bewölkt in 2400 ft

aufgelockert bewölkt in 3300 ft

aufgebrochene Bewölkung in 5900 ft

Temperatur 16.0°C

Taupunkt 13.0°C

Luftfeuchtigkeit 82%

Luftdruck 1014 hPa

ETNT 151620Z 20003KT 9999 FEW024 SCT033 BKN059 16/13 Q1014 BLU

Prognose für ETNT

vom 15.07. um 16:00 UTC

Zwischen 17:00 UTC und 02:00 UTC

Wind 5 kt aus 350°

Sichtweite 10 km oder mehr

keine signifikanten Wettererscheinungen

gering bewölkt in 2000 ft

aufgebrochene Bewölkung in 5000 ft


Zwischen 17:00 UTC und 02:00 UTC zeitweise

Wind 10 kt aus 350°

Sichtweite 6000 m

schwacher Regenschauer

aufgelockert bewölkt in 1000 ft

aufgebrochene Bewölkung in 1500 ft

TAF ETNT 151600Z 1517/1602 35005KT 9999 NSW FEW020 BKN050 TEMPO 1517/1602 35010KT 6000 -SHRA SCT010 BKN015TCU BY ETGL
Impressum